Aeroporto :
LOGIN :

Iscrizione | Disclaimer

   EN    FR    IT 

 










Sommario :    VFR   VFR Marginale   IFR   IFR Intensivo   IFR Molto Intensivo
Visibilità : 
Base nubi : 
>= 8 km
>= 3000ft
5 / 8 km
1000 / 3000 ft
1500m / 5 km
500 / 1000 ft
800 / 1500m
200 / 500 ft
< 800m
< 200 ft
Simboli :   Temporali  Nebbia  Neve Forte  Precipitazioni Forti  Vento > 20 kt
SIGMETs :   Varie  Temporali  Ghiacco  Turbolenza  Onda orograficha  Ceneri Vulcaniche






- Altitudine del aeroporto : 288 ft
- Codice IATA : BZZ


EGVN - RAF Brize Norton

ULTIMO METAR :
  • 300850Z 19002KT 8000 VCFG FEW004 OVC300 09/09 Q1007 NOSIG RMK BLU BLU

METARs OBSOLETI :
  • 300839Z 20003KT 5000 VCFG SCT003 OVC300 09/09 Q1007 BECMG 9999 NSW FEW010 RMK YLO2 BECMG BLU
  • 300820Z 20003KT 0600 FG VV/// 09/08 Q1007 BECMG 4000 BR RMK RED BECMG GRN
  • 300750Z 19003KT 0250 FG VV/// 08/08 Q1008 BECMG 4000 BR RMK RED BECMG GRN
  • 300720Z 20002KT 0200 FG SKC 08/08 Q1008 BECMG 4000 BR RMK RED BECMG GRN
  • 300650Z 24003KT 0200 FG OVC001 08/07 Q1008 BECMG 4000 BR FEW001
  • 300620Z AUTO 21003KT 0150 FG FEW001/// BKN053/// 08/07 Q1008

TAF AMD TAF EGVN
Valido dal 30 a 09 ore il 01 a 09 ore UTC


300900Z 3009/0109 22005KT 9999 SCT030
TEMPO 3012/3020 21018G28KT 5000 RA BKN020
PROB40
TEMPO 3014/3019 3000 +RA BKN012
BECMG 3020/3022 26012KT



MetMap, La meteo Aeronautica in un colpo d'occhio ! - Copyright ORBIFLY Dicembre 2007 - Disclaimer

ORBIFLY MET'MAP TEAM :

Programmazione e sviluppo : Alexandra Zaïnal
Concezione : Baudouin d'Aumeries
Supporto tecnico e logistico : Manuel Goepfert
Aiuto : Marc-Olivier Méhu
Aiuto per la traduzione : Arnaldo La Scala




FONTI E CREDITI :

   NOAA